sensor_id;sensor_type;location;lat;lon;timestamp;temperature;humidity
16974;DHT22;8603;46.944;7.412;2023-07-09T00:01:39;18.30;99.90
16974;DHT22;8603;46.944;7.412;2023-07-09T00:04:04;18.30;99.90
16974;DHT22;8603;46.944;7.412;2023-07-09T00:06:30;18.30;99.90
16974;DHT22;8603;46.944;7.412;2023-07-09T00:08:55;18.30;99.90
16974;DHT22;8603;46.944;7.412;2023-07-09T00:11:21;18.30;99.90
16974;DHT22;8603;46.944;7.412;2023-07-09T00:13:46;18.20;99.90
16974;DHT22;8603;46.944;7.412;2023-07-09T00:16:19;18.20;99.90
16974;DHT22;8603;46.944;7.412;2023-07-09T00:18:46;18.10;99.90
16974;DHT22;8603;46.944;7.412;2023-07-09T00:21:14;18.10;99.90
16974;DHT22;8603;46.944;7.412;2023-07-09T00:23:39;18.00;99.90
16974;DHT22;8603;46.944;7.412;2023-07-09T00:26:11;18.00;99.90
16974;DHT22;8603;46.944;7.412;2023-07-09T00:28:39;18.00;99.90
16974;DHT22;8603;46.944;7.412;2023-07-09T00:31:05;17.90;99.90
16974;DHT22;8603;46.944;7.412;2023-07-09T00:33:30;17.90;99.90
16974;DHT22;8603;46.944;7.412;2023-07-09T00:35:57;18.00;99.90
16974;DHT22;8603;46.944;7.412;2023-07-09T00:38:23;17.90;99.90
16974;DHT22;8603;46.944;7.412;2023-07-09T00:43:25;17.80;99.90
16974;DHT22;8603;46.944;7.412;2023-07-09T00:48:47;17.70;99.90
16974;DHT22;8603;46.944;7.412;2023-07-09T00:51:17;17.70;99.90
16974;DHT22;8603;46.944;7.412;2023-07-09T00:53:46;17.60;99.90
16974;DHT22;8603;46.944;7.412;2023-07-09T00:56:18;17.60;99.90
16974;DHT22;8603;46.944;7.412;2023-07-09T00:58:49;17.50;99.90
16974;DHT22;8603;46.944;7.412;2023-07-09T01:01:17;17.50;99.90
16974;DHT22;8603;46.944;7.412;2023-07-09T01:03:49;17.50;99.90
16974;DHT22;8603;46.944;7.412;2023-07-09T01:06:23;17.40;99.90
16974;DHT22;8603;46.944;7.412;2023-07-09T01:08:51;17.40;99.90
16974;DHT22;8603;46.944;7.412;2023-07-09T01:11:21;17.40;99.90
16974;DHT22;8603;46.944;7.412;2023-07-09T01:13:59;17.30;99.90
16974;DHT22;8603;46.944;7.412;2023-07-09T01:16:29;17.30;99.90
16974;DHT22;8603;46.944;7.412;2023-07-09T01:18:55;17.20;99.90
16974;DHT22;8603;46.944;7.412;2023-07-09T01:21:21;17.20;99.90
16974;DHT22;8603;46.944;7.412;2023-07-09T01:23:48;17.20;99.90
16974;DHT22;8603;46.944;7.412;2023-07-09T01:26:23;17.10;99.90
16974;DHT22;8603;46.944;7.412;2023-07-09T01:28:50;17.10;99.90
16974;DHT22;8603;46.944;7.412;2023-07-09T01:31:16;17.10;99.90
16974;DHT22;8603;46.944;7.412;2023-07-09T01:33:43;17.10;99.90
16974;DHT22;8603;46.944;7.412;2023-07-09T01:36:11;17.00;99.90
16974;DHT22;8603;46.944;7.412;2023-07-09T01:38:39;17.00;99.90
16974;DHT22;8603;46.944;7.412;2023-07-09T01:41:05;17.00;99.90
16974;DHT22;8603;46.944;7.412;2023-07-09T01:43:31;16.90;99.90
16974;DHT22;8603;46.944;7.412;2023-07-09T01:45:57;16.90;99.90
16974;DHT22;8603;46.944;7.412;2023-07-09T01:48:24;16.90;99.90
16974;DHT22;8603;46.944;7.412;2023-07-09T01:50:51;16.90;99.90
16974;DHT22;8603;46.944;7.412;2023-07-09T01:53:19;16.80;99.90
16974;DHT22;8603;46.944;7.412;2023-07-09T01:55:49;16.80;99.90
16974;DHT22;8603;46.944;7.412;2023-07-09T01:58:15;16.70;99.90
16974;DHT22;8603;46.944;7.412;2023-07-09T02:00:42;16.80;99.90
16974;DHT22;8603;46.944;7.412;2023-07-09T02:03:08;16.70;99.90
16974;DHT22;8603;46.944;7.412;2023-07-09T02:05:35;16.60;99.90
16974;DHT22;8603;46.944;7.412;2023-07-09T02:08:02;16.60;99.90
16974;DHT22;8603;46.944;7.412;2023-07-09T02:10:28;16.60;99.90
16974;DHT22;8603;46.944;7.412;2023-07-09T02:12:53;16.60;99.90
16974;DHT22;8603;46.944;7.412;2023-07-09T02:15:20;16.60;99.90
16974;DHT22;8603;46.944;7.412;2023-07-09T02:17:46;16.60;99.90
16974;DHT22;8603;46.944;7.412;2023-07-09T02:20:12;16.50;99.90
16974;DHT22;8603;46.944;7.412;2023-07-09T02:22:39;16.50;99.90
16974;DHT22;8603;46.944;7.412;2023-07-09T02:25:06;16.50;99.90
16974;DHT22;8603;46.944;7.412;2023-07-09T02:27:33;16.50;99.90
16974;DHT22;8603;46.944;7.412;2023-07-09T02:29:58;16.40;99.90
16974;DHT22;8603;46.944;7.412;2023-07-09T02:32:26;16.40;99.90
16974;DHT22;8603;46.944;7.412;2023-07-09T02:34:52;16.40;99.90
16974;DHT22;8603;46.944;7.412;2023-07-09T02:37:20;16.30;99.90
16974;DHT22;8603;46.944;7.412;2023-07-09T02:39:46;16.30;99.90
16974;DHT22;8603;46.944;7.412;2023-07-09T02:42:14;16.20;99.90
16974;DHT22;8603;46.944;7.412;2023-07-09T02:44:41;16.30;99.90
16974;DHT22;8603;46.944;7.412;2023-07-09T02:47:07;16.30;99.90
16974;DHT22;8603;46.944;7.412;2023-07-09T02:49:33;16.30;99.90
16974;DHT22;8603;46.944;7.412;2023-07-09T02:51:59;16.20;99.90
16974;DHT22;8603;46.944;7.412;2023-07-09T02:54:25;16.20;99.90
16974;DHT22;8603;46.944;7.412;2023-07-09T02:56:50;16.20;99.90
16974;DHT22;8603;46.944;7.412;2023-07-09T02:59:16;16.10;99.90
16974;DHT22;8603;46.944;7.412;2023-07-09T03:01:42;16.10;99.90
16974;DHT22;8603;46.944;7.412;2023-07-09T03:04:08;16.10;99.90
16974;DHT22;8603;46.944;7.412;2023-07-09T03:06:36;16.00;99.90
16974;DHT22;8603;46.944;7.412;2023-07-09T03:09:03;16.00;99.90
16974;DHT22;8603;46.944;7.412;2023-07-09T03:11:31;16.00;99.90
16974;DHT22;8603;46.944;7.412;2023-07-09T03:13:58;16.00;99.90
16974;DHT22;8603;46.944;7.412;2023-07-09T03:16:27;16.10;99.90
16974;DHT22;8603;46.944;7.412;2023-07-09T03:18:52;16.00;99.90
16974;DHT22;8603;46.944;7.412;2023-07-09T03:21:19;16.00;99.90
16974;DHT22;8603;46.944;7.412;2023-07-09T03:23:45;15.90;99.90
16974;DHT22;8603;46.944;7.412;2023-07-09T03:26:11;15.90;99.90
16974;DHT22;8603;46.944;7.412;2023-07-09T03:28:36;15.80;99.90
16974;DHT22;8603;46.944;7.412;2023-07-09T03:31:02;15.90;99.90
16974;DHT22;8603;46.944;7.412;2023-07-09T03:33:28;15.80;99.90
16974;DHT22;8603;46.944;7.412;2023-07-09T03:35:54;15.80;99.90
16974;DHT22;8603;46.944;7.412;2023-07-09T03:38:20;15.80;99.90
16974;DHT22;8603;46.944;7.412;2023-07-09T03:40:49;15.80;99.90
16974;DHT22;8603;46.944;7.412;2023-07-09T03:43:14;15.70;99.90
16974;DHT22;8603;46.944;7.412;2023-07-09T03:45:40;15.70;99.90
16974;DHT22;8603;46.944;7.412;2023-07-09T03:48:06;15.70;99.90
16974;DHT22;8603;46.944;7.412;2023-07-09T03:50:32;15.70;99.90
16974;DHT22;8603;46.944;7.412;2023-07-09T03:52:58;15.70;99.90
16974;DHT22;8603;46.944;7.412;2023-07-09T03:55:23;15.70;99.90
16974;DHT22;8603;46.944;7.412;2023-07-09T03:57:55;15.60;99.90
16974;DHT22;8603;46.944;7.412;2023-07-09T04:00:21;15.70;99.90
16974;DHT22;8603;46.944;7.412;2023-07-09T04:02:48;15.60;99.90
16974;DHT22;8603;46.944;7.412;2023-07-09T04:05:14;15.70;99.90
16974;DHT22;8603;46.944;7.412;2023-07-09T04:07:39;15.60;99.90
16974;DHT22;8603;46.944;7.412;2023-07-09T04:10:06;15.70;99.90
16974;DHT22;8603;46.944;7.412;2023-07-09T04:12:32;15.70;99.90
16974;DHT22;8603;46.944;7.412;2023-07-09T04:14:57;15.70;99.90
16974;DHT22;8603;46.944;7.412;2023-07-09T04:17:23;15.80;99.90
16974;DHT22;8603;46.944;7.412;2023-07-09T04:19:50;15.80;99.90
16974;DHT22;8603;46.944;7.412;2023-07-09T04:22:15;15.90;99.90
16974;DHT22;8603;46.944;7.412;2023-07-09T04:24:41;15.90;99.90
16974;DHT22;8603;46.944;7.412;2023-07-09T04:27:07;16.00;99.90
16974;DHT22;8603;46.944;7.412;2023-07-09T04:29:33;16.10;99.90
16974;DHT22;8603;46.944;7.412;2023-07-09T04:32:04;16.20;99.90
16974;DHT22;8603;46.944;7.412;2023-07-09T04:34:30;16.30;99.90
16974;DHT22;8603;46.944;7.412;2023-07-09T04:36:56;16.40;99.90
16974;DHT22;8603;46.944;7.412;2023-07-09T04:39:21;16.40;99.90
16974;DHT22;8603;46.944;7.412;2023-07-09T04:41:47;16.50;99.90
16974;DHT22;8603;46.944;7.412;2023-07-09T04:44:13;16.60;99.90
16974;DHT22;8603;46.944;7.412;2023-07-09T04:46:39;16.70;99.90
16974;DHT22;8603;46.944;7.412;2023-07-09T04:49:04;16.80;99.90
16974;DHT22;8603;46.944;7.412;2023-07-09T04:51:30;16.90;99.90
16974;DHT22;8603;46.944;7.412;2023-07-09T04:53:55;17.00;99.90
16974;DHT22;8603;46.944;7.412;2023-07-09T04:56:21;17.10;99.90
16974;DHT22;8603;46.944;7.412;2023-07-09T04:58:47;17.20;99.90
16974;DHT22;8603;46.944;7.412;2023-07-09T05:01:13;17.40;99.90
16974;DHT22;8603;46.944;7.412;2023-07-09T05:03:38;17.50;99.90
16974;DHT22;8603;46.944;7.412;2023-07-09T05:06:04;17.60;99.90
16974;DHT22;8603;46.944;7.412;2023-07-09T05:08:30;17.70;99.90
16974;DHT22;8603;46.944;7.412;2023-07-09T05:10:57;17.90;99.90
16974;DHT22;8603;46.944;7.412;2023-07-09T05:13:23;18.00;99.90
16974;DHT22;8603;46.944;7.412;2023-07-09T05:15:49;18.20;99.90
16974;DHT22;8603;46.944;7.412;2023-07-09T05:18:16;18.30;99.90
16974;DHT22;8603;46.944;7.412;2023-07-09T05:20:42;18.40;99.90
16974;DHT22;8603;46.944;7.412;2023-07-09T05:23:09;18.50;99.90
16974;DHT22;8603;46.944;7.412;2023-07-09T05:25:35;18.70;99.90
16974;DHT22;8603;46.944;7.412;2023-07-09T05:28:01;18.80;99.90
16974;DHT22;8603;46.944;7.412;2023-07-09T05:30:26;19.00;99.90
16974;DHT22;8603;46.944;7.412;2023-07-09T05:32:52;19.20;99.90
16974;DHT22;8603;46.944;7.412;2023-07-09T05:35:19;19.30;99.90
16974;DHT22;8603;46.944;7.412;2023-07-09T05:37:45;19.50;99.90
16974;DHT22;8603;46.944;7.412;2023-07-09T05:40:10;19.60;99.90
16974;DHT22;8603;46.944;7.412;2023-07-09T05:42:36;19.80;99.90
16974;DHT22;8603;46.944;7.412;2023-07-09T05:45:02;20.30;99.90
16974;DHT22;8603;46.944;7.412;2023-07-09T05:47:28;20.70;99.90
16974;DHT22;8603;46.944;7.412;2023-07-09T05:49:53;21.10;99.90
16974;DHT22;8603;46.944;7.412;2023-07-09T05:52:20;21.20;99.90
16974;DHT22;8603;46.944;7.412;2023-07-09T05:54:49;21.30;99.90
16974;DHT22;8603;46.944;7.412;2023-07-09T05:57:15;21.40;99.90
16974;DHT22;8603;46.944;7.412;2023-07-09T05:59:40;21.90;99.90
16974;DHT22;8603;46.944;7.412;2023-07-09T06:02:13;22.50;99.90
16974;DHT22;8603;46.944;7.412;2023-07-09T06:04:39;23.20;99.90
16974;DHT22;8603;46.944;7.412;2023-07-09T06:07:05;24.30;99.90
16974;DHT22;8603;46.944;7.412;2023-07-09T06:09:31;25.70;99.90
16974;DHT22;8603;46.944;7.412;2023-07-09T06:11:57;27.00;99.90
16974;DHT22;8603;46.944;7.412;2023-07-09T06:14:23;28.00;99.90
16974;DHT22;8603;46.944;7.412;2023-07-09T06:16:48;28.50;99.90
16974;DHT22;8603;46.944;7.412;2023-07-09T06:19:14;29.40;99.90
16974;DHT22;8603;46.944;7.412;2023-07-09T06:21:40;31.20;99.90
16974;DHT22;8603;46.944;7.412;2023-07-09T06:24:06;32.90;99.90
16974;DHT22;8603;46.944;7.412;2023-07-09T06:26:32;34.50;99.20
16974;DHT22;8603;46.944;7.412;2023-07-09T06:28:58;35.80;95.70
16974;DHT22;8603;46.944;7.412;2023-07-09T06:31:24;36.80;92.80
16974;DHT22;8603;46.944;7.412;2023-07-09T06:33:50;37.70;90.20
16974;DHT22;8603;46.944;7.412;2023-07-09T06:36:17;38.40;87.80
16974;DHT22;8603;46.944;7.412;2023-07-09T06:38:43;39.10;82.10
16974;DHT22;8603;46.944;7.412;2023-07-09T06:41:09;39.50;80.30
16974;DHT22;8603;46.944;7.412;2023-07-09T06:43:35;40.00;77.20
16974;DHT22;8603;46.944;7.412;2023-07-09T06:46:05;40.40;75.70
16974;DHT22;8603;46.944;7.412;2023-07-09T06:48:31;41.00;72.20
16974;DHT22;8603;46.944;7.412;2023-07-09T06:50:59;41.50;71.50
16974;DHT22;8603;46.944;7.412;2023-07-09T06:53:26;42.10;71.60
16974;DHT22;8603;46.944;7.412;2023-07-09T06:55:51;42.60;69.00
16974;DHT22;8603;46.944;7.412;2023-07-09T06:58:24;43.00;66.30
16974;DHT22;8603;46.944;7.412;2023-07-09T07:00:51;43.40;64.30
16974;DHT22;8603;46.944;7.412;2023-07-09T07:03:16;43.70;63.10
16974;DHT22;8603;46.944;7.412;2023-07-09T07:05:44;44.10;62.00
16974;DHT22;8603;46.944;7.412;2023-07-09T07:08:10;44.30;60.50
16974;DHT22;8603;46.944;7.412;2023-07-09T07:10:36;44.60;60.80
16974;DHT22;8603;46.944;7.412;2023-07-09T07:13:01;44.90;58.60
16974;DHT22;8603;46.944;7.412;2023-07-09T07:15:27;45.20;58.40
16974;DHT22;8603;46.944;7.412;2023-07-09T07:17:52;45.60;57.10
16974;DHT22;8603;46.944;7.412;2023-07-09T07:20:18;45.70;57.40
16974;DHT22;8603;46.944;7.412;2023-07-09T07:22:44;45.70;56.50
16974;DHT22;8603;46.944;7.412;2023-07-09T07:25:10;46.00;56.10
16974;DHT22;8603;46.944;7.412;2023-07-09T07:27:36;46.40;56.30
16974;DHT22;8603;46.944;7.412;2023-07-09T07:30:03;46.60;55.50
16974;DHT22;8603;46.944;7.412;2023-07-09T07:32:28;46.80;55.10
16974;DHT22;8603;46.944;7.412;2023-07-09T07:34:54;47.00;54.60
16974;DHT22;8603;46.944;7.412;2023-07-09T07:37:20;47.30;54.70
16974;DHT22;8603;46.944;7.412;2023-07-09T07:39:47;47.50;53.80
16974;DHT22;8603;46.944;7.412;2023-07-09T07:42:13;47.50;54.20
16974;DHT22;8603;46.944;7.412;2023-07-09T07:44:38;47.60;53.40
16974;DHT22;8603;46.944;7.412;2023-07-09T07:47:04;47.60;53.30
16974;DHT22;8603;46.944;7.412;2023-07-09T07:49:30;48.10;52.90
16974;DHT22;8603;46.944;7.412;2023-07-09T07:51:56;48.70;52.20
16974;DHT22;8603;46.944;7.412;2023-07-09T07:54:21;49.30;51.70
16974;DHT22;8603;46.944;7.412;2023-07-09T07:56:47;49.60;50.80
16974;DHT22;8603;46.944;7.412;2023-07-09T07:59:12;50.10;50.50
16974;DHT22;8603;46.944;7.412;2023-07-09T08:01:39;50.40;50.40
16974;DHT22;8603;46.944;7.412;2023-07-09T08:04:05;50.70;50.40
16974;DHT22;8603;46.944;7.412;2023-07-09T08:06:31;51.00;50.00
16974;DHT22;8603;46.944;7.412;2023-07-09T08:08:58;51.30;50.20
16974;DHT22;8603;46.944;7.412;2023-07-09T08:11:24;51.60;48.90
16974;DHT22;8603;46.944;7.412;2023-07-09T08:13:50;51.80;48.40
16974;DHT22;8603;46.944;7.412;2023-07-09T08:16:16;52.00;47.50
16974;DHT22;8603;46.944;7.412;2023-07-09T08:18:42;52.10;47.20
16974;DHT22;8603;46.944;7.412;2023-07-09T08:21:08;52.20;46.70
16974;DHT22;8603;46.944;7.412;2023-07-09T08:23:35;52.30;46.10
16974;DHT22;8603;46.944;7.412;2023-07-09T08:26:02;52.40;46.10
16974;DHT22;8603;46.944;7.412;2023-07-09T08:28:29;52.30;46.10
16974;DHT22;8603;46.944;7.412;2023-07-09T08:30:55;52.20;46.30
16974;DHT22;8603;46.944;7.412;2023-07-09T08:33:22;52.30;45.70
16974;DHT22;8603;46.944;7.412;2023-07-09T08:35:52;52.30;45.40
16974;DHT22;8603;46.944;7.412;2023-07-09T08:38:18;52.40;45.20
16974;DHT22;8603;46.944;7.412;2023-07-09T08:46:59;52.10;45.40
16974;DHT22;8603;46.944;7.412;2023-07-09T08:49:41;52.30;45.50
16974;DHT22;8603;46.944;7.412;2023-07-09T08:54:59;52.10;45.20
16974;DHT22;8603;46.944;7.412;2023-07-09T08:57:31;51.90;45.60
16974;DHT22;8603;46.944;7.412;2023-07-09T09:00:02;51.50;45.20
16974;DHT22;8603;46.944;7.412;2023-07-09T09:02:36;51.20;45.20
16974;DHT22;8603;46.944;7.412;2023-07-09T09:05:05;50.90;46.00
16974;DHT22;8603;46.944;7.412;2023-07-09T09:10:03;50.50;46.80
16974;DHT22;8603;46.944;7.412;2023-07-09T09:12:38;50.20;46.30
16974;DHT22;8603;46.944;7.412;2023-07-09T09:15:15;50.10;45.40
16974;DHT22;8603;46.944;7.412;2023-07-09T09:17:41;50.10;45.70
16974;DHT22;8603;46.944;7.412;2023-07-09T09:20:16;50.10;45.80
16974;DHT22;8603;46.944;7.412;2023-07-09T09:25:34;50.10;45.20
16974;DHT22;8603;46.944;7.412;2023-07-09T09:28:03;49.70;45.70
16974;DHT22;8603;46.944;7.412;2023-07-09T09:30:30;48.50;46.60
16974;DHT22;8603;46.944;7.412;2023-07-09T09:32:58;47.30;47.20
16974;DHT22;8603;46.944;7.412;2023-07-09T09:35:38;46.90;47.80
16974;DHT22;8603;46.944;7.412;2023-07-09T09:38:17;46.40;48.30
16974;DHT22;8603;46.944;7.412;2023-07-09T09:40:43;45.50;48.70
16974;DHT22;8603;46.944;7.412;2023-07-09T09:43:17;45.00;48.80
16974;DHT22;8603;46.944;7.412;2023-07-09T09:45:45;44.60;48.70
16974;DHT22;8603;46.944;7.412;2023-07-09T09:48:29;44.40;49.30
16974;DHT22;8603;46.944;7.412;2023-07-09T09:50:55;44.10;49.00
16974;DHT22;8603;46.944;7.412;2023-07-09T09:53:26;43.50;51.30
16974;DHT22;8603;46.944;7.412;2023-07-09T09:55:54;43.00;50.70
16974;DHT22;8603;46.944;7.412;2023-07-09T09:58:24;42.40;50.70
16974;DHT22;8603;46.944;7.412;2023-07-09T10:00:52;41.80;51.10
16974;DHT22;8603;46.944;7.412;2023-07-09T10:03:19;41.00;51.30
16974;DHT22;8603;46.944;7.412;2023-07-09T10:05:50;40.30;53.30
16974;DHT22;8603;46.944;7.412;2023-07-09T10:11:16;38.80;54.10
16974;DHT22;8603;46.944;7.412;2023-07-09T10:13:44;38.00;55.10
16974;DHT22;8603;46.944;7.412;2023-07-09T10:16:27;37.40;55.50
16974;DHT22;8603;46.944;7.412;2023-07-09T10:21:56;37.10;57.30
16974;DHT22;8603;46.944;7.412;2023-07-09T10:33:17;35.90;58.60
16974;DHT22;8603;46.944;7.412;2023-07-09T10:40:59;35.60;61.00
16974;DHT22;8603;46.944;7.412;2023-07-09T10:43:48;35.50;61.80
16974;DHT22;8603;46.944;7.412;2023-07-09T10:46:19;35.40;59.70
16974;DHT22;8603;46.944;7.412;2023-07-09T10:48:49;35.40;60.20
16974;DHT22;8603;46.944;7.412;2023-07-09T10:51:37;35.10;59.30
16974;DHT22;8603;46.944;7.412;2023-07-09T10:54:39;34.80;60.90
16974;DHT22;8603;46.944;7.412;2023-07-09T10:57:28;34.70;62.20
16974;DHT22;8603;46.944;7.412;2023-07-09T10:59:54;34.70;63.70
16974;DHT22;8603;46.944;7.412;2023-07-09T11:05:02;34.70;64.00
16974;DHT22;8603;46.944;7.412;2023-07-09T11:07:33;34.60;65.40
16974;DHT22;8603;46.944;7.412;2023-07-09T11:10:02;34.60;64.60
16974;DHT22;8603;46.944;7.412;2023-07-09T11:12:36;34.40;65.20
16974;DHT22;8603;46.944;7.412;2023-07-09T11:15:16;34.30;65.50
16974;DHT22;8603;46.944;7.412;2023-07-09T11:17:45;34.30;65.50
16974;DHT22;8603;46.944;7.412;2023-07-09T11:20:34;34.40;65.40
16974;DHT22;8603;46.944;7.412;2023-07-09T11:23:06;34.60;65.90
16974;DHT22;8603;46.944;7.412;2023-07-09T11:25:42;34.60;65.10
16974;DHT22;8603;46.944;7.412;2023-07-09T11:28:08;34.70;65.70
16974;DHT22;8603;46.944;7.412;2023-07-09T11:31:05;34.50;64.40
16974;DHT22;8603;46.944;7.412;2023-07-09T11:33:31;34.20;64.30
16974;DHT22;8603;46.944;7.412;2023-07-09T11:36:14;34.00;66.40
16974;DHT22;8603;46.944;7.412;2023-07-09T11:38:48;34.00;66.80
16974;DHT22;8603;46.944;7.412;2023-07-09T11:41:37;34.00;63.40
16974;DHT22;8603;46.944;7.412;2023-07-09T11:49:15;33.90;62.00
16974;DHT22;8603;46.944;7.412;2023-07-09T11:51:45;33.90;62.30
16974;DHT22;8603;46.944;7.412;2023-07-09T11:54:13;34.00;61.80
16974;DHT22;8603;46.944;7.412;2023-07-09T11:56:39;34.10;62.30
16974;DHT22;8603;46.944;7.412;2023-07-09T11:59:05;34.00;60.20
16974;DHT22;8603;46.944;7.412;2023-07-09T12:01:42;33.80;59.60
16974;DHT22;8603;46.944;7.412;2023-07-09T12:04:16;33.80;60.20
16974;DHT22;8603;46.944;7.412;2023-07-09T12:06:42;33.90;59.90
16974;DHT22;8603;46.944;7.412;2023-07-09T12:09:17;34.00;60.10
16974;DHT22;8603;46.944;7.412;2023-07-09T12:11:48;34.10;59.90
16974;DHT22;8603;46.944;7.412;2023-07-09T12:14:17;34.20;58.80
16974;DHT22;8603;46.944;7.412;2023-07-09T12:16:48;34.30;59.20
16974;DHT22;8603;46.944;7.412;2023-07-09T12:19:16;34.50;59.20
16974;DHT22;8603;46.944;7.412;2023-07-09T12:21:44;34.60;57.70
16974;DHT22;8603;46.944;7.412;2023-07-09T12:27:25;34.80;57.00
16974;DHT22;8603;46.944;7.412;2023-07-09T12:29:56;34.80;57.20
16974;DHT22;8603;46.944;7.412;2023-07-09T12:32:22;34.90;57.70
16974;DHT22;8603;46.944;7.412;2023-07-09T12:34:53;35.00;57.50
16974;DHT22;8603;46.944;7.412;2023-07-09T12:37:20;35.10;56.40
16974;DHT22;8603;46.944;7.412;2023-07-09T12:39:49;35.20;57.60
16974;DHT22;8603;46.944;7.412;2023-07-09T12:42:20;35.20;57.70
16974;DHT22;8603;46.944;7.412;2023-07-09T12:44:49;35.30;56.90
16974;DHT22;8603;46.944;7.412;2023-07-09T12:47:16;35.40;56.70
16974;DHT22;8603;46.944;7.412;2023-07-09T12:49:44;35.40;56.30
16974;DHT22;8603;46.944;7.412;2023-07-09T12:52:21;35.40;56.40
16974;DHT22;8603;46.944;7.412;2023-07-09T12:55:02;35.40;55.70
16974;DHT22;8603;46.944;7.412;2023-07-09T12:57:28;35.40;56.60
16974;DHT22;8603;46.944;7.412;2023-07-09T12:59:56;35.40;56.30
16974;DHT22;8603;46.944;7.412;2023-07-09T13:02:26;35.40;55.80
16974;DHT22;8603;46.944;7.412;2023-07-09T13:05:02;35.40;56.40
16974;DHT22;8603;46.944;7.412;2023-07-09T13:07:34;35.30;54.90
16974;DHT22;8603;46.944;7.412;2023-07-09T13:10:29;35.10;56.50
16974;DHT22;8603;46.944;7.412;2023-07-09T13:13:03;35.10;55.80
16974;DHT22;8603;46.944;7.412;2023-07-09T13:18:04;35.10;55.00
16974;DHT22;8603;46.944;7.412;2023-07-09T13:20:32;35.10;55.00
16974;DHT22;8603;46.944;7.412;2023-07-09T13:22:58;35.20;56.00
16974;DHT22;8603;46.944;7.412;2023-07-09T13:25:24;35.30;55.10
16974;DHT22;8603;46.944;7.412;2023-07-09T13:27:50;35.40;54.80
16974;DHT22;8603;46.944;7.412;2023-07-09T13:30:16;35.40;56.30
16974;DHT22;8603;46.944;7.412;2023-07-09T13:32:42;35.40;55.80
16974;DHT22;8603;46.944;7.412;2023-07-09T13:35:16;35.20;54.10
16974;DHT22;8603;46.944;7.412;2023-07-09T13:37:46;35.30;54.40
16974;DHT22;8603;46.944;7.412;2023-07-09T13:40:14;35.30;55.00
16974;DHT22;8603;46.944;7.412;2023-07-09T13:42:40;35.40;55.10
16974;DHT22;8603;46.944;7.412;2023-07-09T13:45:19;35.50;54.40
16974;DHT22;8603;46.944;7.412;2023-07-09T13:47:45;35.50;53.40
16974;DHT22;8603;46.944;7.412;2023-07-09T13:50:11;35.40;54.20
16974;DHT22;8603;46.944;7.412;2023-07-09T13:52:36;35.40;54.20
16974;DHT22;8603;46.944;7.412;2023-07-09T13:55:02;35.40;53.70
16974;DHT22;8603;46.944;7.412;2023-07-09T13:57:28;35.30;53.50
16974;DHT22;8603;46.944;7.412;2023-07-09T13:59:54;35.30;53.60
16974;DHT22;8603;46.944;7.412;2023-07-09T14:04:46;35.20;54.00
16974;DHT22;8603;46.944;7.412;2023-07-09T14:07:30;35.20;54.50
16974;DHT22;8603;46.944;7.412;2023-07-09T14:09:57;35.20;53.90
16974;DHT22;8603;46.944;7.412;2023-07-09T14:12:23;35.30;55.20
16974;DHT22;8603;46.944;7.412;2023-07-09T14:14:51;35.30;53.90
16974;DHT22;8603;46.944;7.412;2023-07-09T14:17:17;35.20;53.60
16974;DHT22;8603;46.944;7.412;2023-07-09T14:19:43;35.10;53.40
16974;DHT22;8603;46.944;7.412;2023-07-09T14:24:46;34.80;53.70
16974;DHT22;8603;46.944;7.412;2023-07-09T14:27:12;34.60;53.30
16974;DHT22;8603;46.944;7.412;2023-07-09T14:29:37;34.50;53.70
16974;DHT22;8603;46.944;7.412;2023-07-09T14:32:04;34.30;53.50
16974;DHT22;8603;46.944;7.412;2023-07-09T14:34:33;34.10;53.70
16974;DHT22;8603;46.944;7.412;2023-07-09T14:37:00;34.00;56.00
16974;DHT22;8603;46.944;7.412;2023-07-09T14:39:27;33.80;56.00
16974;DHT22;8603;46.944;7.412;2023-07-09T14:41:53;33.60;54.90
16974;DHT22;8603;46.944;7.412;2023-07-09T14:46:51;33.20;56.60
16974;DHT22;8603;46.944;7.412;2023-07-09T14:49:18;33.00;58.60
16974;DHT22;8603;46.944;7.412;2023-07-09T14:51:45;32.80;59.00
16974;DHT22;8603;46.944;7.412;2023-07-09T14:54:19;32.60;59.20
16974;DHT22;8603;46.944;7.412;2023-07-09T14:56:47;32.40;59.80
16974;DHT22;8603;46.944;7.412;2023-07-09T14:59:12;32.20;60.80
16974;DHT22;8603;46.944;7.412;2023-07-09T15:01:38;32.10;62.10
16974;DHT22;8603;46.944;7.412;2023-07-09T15:06:52;31.80;63.90
16974;DHT22;8603;46.944;7.412;2023-07-09T15:09:23;31.60;64.80
16974;DHT22;8603;46.944;7.412;2023-07-09T15:11:56;31.60;66.50
16974;DHT22;8603;46.944;7.412;2023-07-09T15:14:24;31.60;66.80
16974;DHT22;8603;46.944;7.412;2023-07-09T15:16:50;31.80;66.50
16974;DHT22;8603;46.944;7.412;2023-07-09T15:19:18;32.00;68.40
16974;DHT22;8603;46.944;7.412;2023-07-09T15:21:44;32.20;68.30
16974;DHT22;8603;46.944;7.412;2023-07-09T15:24:34;32.30;67.80
16974;DHT22;8603;46.944;7.412;2023-07-09T15:27:00;32.40;67.80
16974;DHT22;8603;46.944;7.412;2023-07-09T15:29:27;32.60;69.00
16974;DHT22;8603;46.944;7.412;2023-07-09T15:31:53;32.60;69.80
16974;DHT22;8603;46.944;7.412;2023-07-09T15:34:19;32.60;71.00
16974;DHT22;8603;46.944;7.412;2023-07-09T15:36:49;32.70;72.40
16974;DHT22;8603;46.944;7.412;2023-07-09T15:39:15;32.80;72.70
16974;DHT22;8603;46.944;7.412;2023-07-09T15:41:41;32.90;71.50
16974;DHT22;8603;46.944;7.412;2023-07-09T15:44:14;33.00;71.50
16974;DHT22;8603;46.944;7.412;2023-07-09T15:46:44;33.00;70.70
16974;DHT22;8603;46.944;7.412;2023-07-09T15:49:12;33.30;70.20
16974;DHT22;8603;46.944;7.412;2023-07-09T15:51:38;33.50;70.20
16974;DHT22;8603;46.944;7.412;2023-07-09T15:54:19;33.70;69.50
16974;DHT22;8603;46.944;7.412;2023-07-09T15:56:46;33.90;68.40
16974;DHT22;8603;46.944;7.412;2023-07-09T15:59:29;34.00;68.50
16974;DHT22;8603;46.944;7.412;2023-07-09T16:01:56;34.20;67.30
16974;DHT22;8603;46.944;7.412;2023-07-09T16:04:21;34.30;66.40
16974;DHT22;8603;46.944;7.412;2023-07-09T16:06:47;34.40;66.70
16974;DHT22;8603;46.944;7.412;2023-07-09T16:09:13;34.40;66.30
16974;DHT22;8603;46.944;7.412;2023-07-09T16:11:42;34.20;65.90
16974;DHT22;8603;46.944;7.412;2023-07-09T16:14:28;33.90;66.10
16974;DHT22;8603;46.944;7.412;2023-07-09T16:16:55;33.60;67.10
16974;DHT22;8603;46.944;7.412;2023-07-09T16:19:24;33.30;67.90
16974;DHT22;8603;46.944;7.412;2023-07-09T16:21:53;33.00;68.80
16974;DHT22;8603;46.944;7.412;2023-07-09T16:24:37;32.70;68.50
16974;DHT22;8603;46.944;7.412;2023-07-09T16:27:05;32.50;69.70
16974;DHT22;8603;46.944;7.412;2023-07-09T16:29:33;32.30;70.30
16974;DHT22;8603;46.944;7.412;2023-07-09T16:32:00;32.20;70.90
16974;DHT22;8603;46.944;7.412;2023-07-09T16:34:27;32.30;71.30
16974;DHT22;8603;46.944;7.412;2023-07-09T16:36:55;32.30;70.90
16974;DHT22;8603;46.944;7.412;2023-07-09T16:41:55;32.60;68.10
16974;DHT22;8603;46.944;7.412;2023-07-09T16:44:22;32.60;69.40
16974;DHT22;8603;46.944;7.412;2023-07-09T16:46:49;32.50;70.10
16974;DHT22;8603;46.944;7.412;2023-07-09T16:49:26;32.40;70.00
16974;DHT22;8603;46.944;7.412;2023-07-09T16:51:53;32.30;70.80
16974;DHT22;8603;46.944;7.412;2023-07-09T16:54:19;32.20;70.80
16974;DHT22;8603;46.944;7.412;2023-07-09T16:56:44;32.00;71.00
16974;DHT22;8603;46.944;7.412;2023-07-09T16:59:10;32.00;71.40